sensor_id;sensor_type;location;lat;lon;timestamp;temperature;humidity
37678;DHT22;23517;50.390;8.616;2023-11-19T00:00:08;7.30;1.00
37678;DHT22;23517;50.390;8.616;2023-11-19T00:02:39;7.40;1.00
37678;DHT22;23517;50.390;8.616;2023-11-19T00:05:06;7.50;1.00
37678;DHT22;23517;50.390;8.616;2023-11-19T00:07:36;7.50;1.00
37678;DHT22;23517;50.390;8.616;2023-11-19T00:10:03;7.50;1.00
37678;DHT22;23517;50.390;8.616;2023-11-19T00:12:33;7.50;1.00
37678;DHT22;23517;50.390;8.616;2023-11-19T00:15:00;7.60;1.00
37678;DHT22;23517;50.390;8.616;2023-11-19T00:17:27;7.60;1.00
37678;DHT22;23517;50.390;8.616;2023-11-19T00:19:54;7.60;1.00
37678;DHT22;23517;50.390;8.616;2023-11-19T00:22:20;7.60;1.00
37678;DHT22;23517;50.390;8.616;2023-11-19T00:24:48;7.60;1.00
37678;DHT22;23517;50.390;8.616;2023-11-19T00:27:15;7.70;1.00
37678;DHT22;23517;50.390;8.616;2023-11-19T00:29:42;7.70;1.00
37678;DHT22;23517;50.390;8.616;2023-11-19T00:32:09;7.70;1.00
37678;DHT22;23517;50.390;8.616;2023-11-19T00:34:37;7.80;1.00
37678;DHT22;23517;50.390;8.616;2023-11-19T00:37:04;7.80;1.00
37678;DHT22;23517;50.390;8.616;2023-11-19T00:39:31;7.90;1.00
37678;DHT22;23517;50.390;8.616;2023-11-19T00:41:57;7.80;1.00
37678;DHT22;23517;50.390;8.616;2023-11-19T00:44:24;7.90;1.00
37678;DHT22;23517;50.390;8.616;2023-11-19T00:46:51;7.90;1.00
37678;DHT22;23517;50.390;8.616;2023-11-19T00:49:18;7.90;1.00
37678;DHT22;23517;50.390;8.616;2023-11-19T00:51:45;7.90;1.00
37678;DHT22;23517;50.390;8.616;2023-11-19T00:54:12;7.90;1.00
37678;DHT22;23517;50.390;8.616;2023-11-19T00:56:38;7.90;1.00
37678;DHT22;23517;50.390;8.616;2023-11-19T00:59:06;7.90;1.00
37678;DHT22;23517;50.390;8.616;2023-11-19T01:01:33;7.90;1.00
37678;DHT22;23517;50.390;8.616;2023-11-19T01:03:59;7.90;1.00
37678;DHT22;23517;50.390;8.616;2023-11-19T01:06:27;7.90;1.00
37678;DHT22;23517;50.390;8.616;2023-11-19T01:08:58;8.00;1.00
37678;DHT22;23517;50.390;8.616;2023-11-19T01:11:25;8.10;1.00
37678;DHT22;23517;50.390;8.616;2023-11-19T01:13:52;8.10;1.00
37678;DHT22;23517;50.390;8.616;2023-11-19T01:16:19;8.10;1.00
37678;DHT22;23517;50.390;8.616;2023-11-19T01:18:47;8.20;1.00
37678;DHT22;23517;50.390;8.616;2023-11-19T01:21:15;8.20;1.00
37678;DHT22;23517;50.390;8.616;2023-11-19T01:23:42;8.20;1.00
37678;DHT22;23517;50.390;8.616;2023-11-19T01:26:10;8.20;1.00
37678;DHT22;23517;50.390;8.616;2023-11-19T01:28:37;8.30;1.00
37678;DHT22;23517;50.390;8.616;2023-11-19T01:31:17;8.20;1.00
37678;DHT22;23517;50.390;8.616;2023-11-19T01:33:44;8.30;1.00
37678;DHT22;23517;50.390;8.616;2023-11-19T01:36:13;8.30;1.00
37678;DHT22;23517;50.390;8.616;2023-11-19T01:38:40;8.30;1.00
37678;DHT22;23517;50.390;8.616;2023-11-19T01:41:07;8.40;1.00
37678;DHT22;23517;50.390;8.616;2023-11-19T01:43:39;8.40;1.00
37678;DHT22;23517;50.390;8.616;2023-11-19T01:46:09;8.50;1.00
37678;DHT22;23517;50.390;8.616;2023-11-19T01:48:44;8.50;1.00
37678;DHT22;23517;50.390;8.616;2023-11-19T01:51:16;8.50;1.00
37678;DHT22;23517;50.390;8.616;2023-11-19T01:53:43;8.50;1.00
37678;DHT22;23517;50.390;8.616;2023-11-19T01:56:13;8.50;1.00
37678;DHT22;23517;50.390;8.616;2023-11-19T01:58:42;8.50;1.00
37678;DHT22;23517;50.390;8.616;2023-11-19T02:01:11;8.50;1.00
37678;DHT22;23517;50.390;8.616;2023-11-19T02:03:39;8.50;1.00
37678;DHT22;23517;50.390;8.616;2023-11-19T02:06:06;8.60;1.00
37678;DHT22;23517;50.390;8.616;2023-11-19T02:08:34;8.50;1.00
37678;DHT22;23517;50.390;8.616;2023-11-19T02:11:00;8.60;1.00
37678;DHT22;23517;50.390;8.616;2023-11-19T02:13:28;8.50;1.00
37678;DHT22;23517;50.390;8.616;2023-11-19T02:15:55;8.50;1.00
37678;DHT22;23517;50.390;8.616;2023-11-19T02:18:27;8.60;1.00
37678;DHT22;23517;50.390;8.616;2023-11-19T02:20:55;8.60;1.00
37678;DHT22;23517;50.390;8.616;2023-11-19T02:23:22;8.60;1.00
37678;DHT22;23517;50.390;8.616;2023-11-19T02:26:03;8.60;1.00
37678;DHT22;23517;50.390;8.616;2023-11-19T02:28:42;8.60;1.00
37678;DHT22;23517;50.390;8.616;2023-11-19T02:31:10;8.70;1.00
37678;DHT22;23517;50.390;8.616;2023-11-19T02:33:38;8.70;1.00
37678;DHT22;23517;50.390;8.616;2023-11-19T02:36:06;8.70;1.00
37678;DHT22;23517;50.390;8.616;2023-11-19T02:38:35;8.60;1.00
37678;DHT22;23517;50.390;8.616;2023-11-19T02:41:06;8.70;1.00
37678;DHT22;23517;50.390;8.616;2023-11-19T02:43:34;8.60;1.00
37678;DHT22;23517;50.390;8.616;2023-11-19T02:46:04;8.60;1.00
37678;DHT22;23517;50.390;8.616;2023-11-19T02:48:38;8.60;1.00
37678;DHT22;23517;50.390;8.616;2023-11-19T02:51:05;8.60;1.00
37678;DHT22;23517;50.390;8.616;2023-11-19T02:53:36;8.60;1.00
37678;DHT22;23517;50.390;8.616;2023-11-19T02:56:06;8.60;1.00
37678;DHT22;23517;50.390;8.616;2023-11-19T02:58:53;8.60;1.00
37678;DHT22;23517;50.390;8.616;2023-11-19T03:01:24;8.60;1.00
37678;DHT22;23517;50.390;8.616;2023-11-19T03:03:58;8.50;1.00
37678;DHT22;23517;50.390;8.616;2023-11-19T03:06:29;8.50;1.00
37678;DHT22;23517;50.390;8.616;2023-11-19T03:08:56;8.50;1.00
37678;DHT22;23517;50.390;8.616;2023-11-19T03:11:22;8.50;1.00
37678;DHT22;23517;50.390;8.616;2023-11-19T03:13:49;8.50;1.00
37678;DHT22;23517;50.390;8.616;2023-11-19T03:16:16;8.50;1.00
37678;DHT22;23517;50.390;8.616;2023-11-19T03:18:43;8.50;1.00
37678;DHT22;23517;50.390;8.616;2023-11-19T03:21:10;8.50;1.00
37678;DHT22;23517;50.390;8.616;2023-11-19T03:23:37;8.50;1.00
37678;DHT22;23517;50.390;8.616;2023-11-19T03:26:13;8.60;1.00
37678;DHT22;23517;50.390;8.616;2023-11-19T03:28:40;8.60;1.00
37678;DHT22;23517;50.390;8.616;2023-11-19T03:31:07;8.60;1.00
37678;DHT22;23517;50.390;8.616;2023-11-19T03:33:36;8.60;1.00
37678;DHT22;23517;50.390;8.616;2023-11-19T03:36:04;8.60;1.00
37678;DHT22;23517;50.390;8.616;2023-11-19T03:38:31;8.60;1.00
37678;DHT22;23517;50.390;8.616;2023-11-19T03:40:58;8.60;1.00
37678;DHT22;23517;50.390;8.616;2023-11-19T03:43:25;8.60;1.00
37678;DHT22;23517;50.390;8.616;2023-11-19T03:45:52;8.60;1.00
37678;DHT22;23517;50.390;8.616;2023-11-19T03:48:19;8.60;1.00
37678;DHT22;23517;50.390;8.616;2023-11-19T03:50:45;8.60;1.00
37678;DHT22;23517;50.390;8.616;2023-11-19T03:53:12;8.60;1.00
37678;DHT22;23517;50.390;8.616;2023-11-19T03:55:39;8.60;1.00
37678;DHT22;23517;50.390;8.616;2023-11-19T03:58:06;8.70;1.00
37678;DHT22;23517;50.390;8.616;2023-11-19T04:00:33;8.70;1.00
37678;DHT22;23517;50.390;8.616;2023-11-19T04:02:59;8.80;1.00
37678;DHT22;23517;50.390;8.616;2023-11-19T04:05:27;8.90;1.00
37678;DHT22;23517;50.390;8.616;2023-11-19T04:07:53;8.90;1.00
37678;DHT22;23517;50.390;8.616;2023-11-19T04:10:20;9.00;1.00
37678;DHT22;23517;50.390;8.616;2023-11-19T04:12:49;8.90;1.00
37678;DHT22;23517;50.390;8.616;2023-11-19T04:15:15;9.00;1.00
37678;DHT22;23517;50.390;8.616;2023-11-19T04:17:42;9.00;1.00
37678;DHT22;23517;50.390;8.616;2023-11-19T04:20:09;9.00;1.00
37678;DHT22;23517;50.390;8.616;2023-11-19T04:22:41;9.10;1.00
37678;DHT22;23517;50.390;8.616;2023-11-19T04:25:08;9.00;1.00
37678;DHT22;23517;50.390;8.616;2023-11-19T04:27:35;8.90;1.00
37678;DHT22;23517;50.390;8.616;2023-11-19T04:30:02;8.90;1.00
37678;DHT22;23517;50.390;8.616;2023-11-19T04:32:30;9.00;1.00
37678;DHT22;23517;50.390;8.616;2023-11-19T04:34:56;9.00;1.00
37678;DHT22;23517;50.390;8.616;2023-11-19T04:37:23;9.00;1.00
37678;DHT22;23517;50.390;8.616;2023-11-19T04:39:50;9.00;1.00
37678;DHT22;23517;50.390;8.616;2023-11-19T04:42:17;9.10;1.00
37678;DHT22;23517;50.390;8.616;2023-11-19T04:44:44;9.20;1.00
37678;DHT22;23517;50.390;8.616;2023-11-19T04:47:11;9.20;1.00
37678;DHT22;23517;50.390;8.616;2023-11-19T04:49:41;9.40;1.00
37678;DHT22;23517;50.390;8.616;2023-11-19T04:52:11;9.20;1.00
37678;DHT22;23517;50.390;8.616;2023-11-19T04:54:42;9.20;1.00
37678;DHT22;23517;50.390;8.616;2023-11-19T04:57:10;9.20;1.00
37678;DHT22;23517;50.390;8.616;2023-11-19T04:59:40;9.20;1.00
37678;DHT22;23517;50.390;8.616;2023-11-19T05:02:08;9.20;1.00
37678;DHT22;23517;50.390;8.616;2023-11-19T05:04:35;9.20;1.00
37678;DHT22;23517;50.390;8.616;2023-11-19T05:07:04;9.30;1.00
37678;DHT22;23517;50.390;8.616;2023-11-19T05:09:31;9.30;1.00
37678;DHT22;23517;50.390;8.616;2023-11-19T05:11:58;9.40;1.00
37678;DHT22;23517;50.390;8.616;2023-11-19T05:14:24;9.40;1.00
37678;DHT22;23517;50.390;8.616;2023-11-19T05:16:51;9.50;1.00
37678;DHT22;23517;50.390;8.616;2023-11-19T05:19:22;9.40;1.00
37678;DHT22;23517;50.390;8.616;2023-11-19T05:21:49;9.50;1.00
37678;DHT22;23517;50.390;8.616;2023-11-19T05:24:18;9.50;1.00
37678;DHT22;23517;50.390;8.616;2023-11-19T05:26:45;9.50;1.00
37678;DHT22;23517;50.390;8.616;2023-11-19T05:29:13;9.60;1.00
37678;DHT22;23517;50.390;8.616;2023-11-19T05:31:40;9.60;1.00
37678;DHT22;23517;50.390;8.616;2023-11-19T05:34:10;9.60;1.00
37678;DHT22;23517;50.390;8.616;2023-11-19T05:36:38;9.60;1.00
37678;DHT22;23517;50.390;8.616;2023-11-19T05:39:05;9.60;1.00
37678;DHT22;23517;50.390;8.616;2023-11-19T05:41:32;9.60;1.00
37678;DHT22;23517;50.390;8.616;2023-11-19T05:43:59;9.50;1.00
37678;DHT22;23517;50.390;8.616;2023-11-19T05:46:25;9.50;1.00
37678;DHT22;23517;50.390;8.616;2023-11-19T05:48:53;9.50;1.00
37678;DHT22;23517;50.390;8.616;2023-11-19T05:51:20;9.40;1.00
37678;DHT22;23517;50.390;8.616;2023-11-19T05:53:47;9.40;1.00
37678;DHT22;23517;50.390;8.616;2023-11-19T05:56:16;9.30;1.00
37678;DHT22;23517;50.390;8.616;2023-11-19T05:58:47;9.30;1.00
37678;DHT22;23517;50.390;8.616;2023-11-19T06:01:15;9.30;1.00
37678;DHT22;23517;50.390;8.616;2023-11-19T06:03:43;9.20;1.00
37678;DHT22;23517;50.390;8.616;2023-11-19T06:06:10;9.20;1.00
37678;DHT22;23517;50.390;8.616;2023-11-19T06:08:37;9.20;1.00
37678;DHT22;23517;50.390;8.616;2023-11-19T06:11:04;9.10;1.00
37678;DHT22;23517;50.390;8.616;2023-11-19T06:13:31;9.20;1.00
37678;DHT22;23517;50.390;8.616;2023-11-19T06:15:58;9.20;1.00
37678;DHT22;23517;50.390;8.616;2023-11-19T06:18:25;9.10;1.00
37678;DHT22;23517;50.390;8.616;2023-11-19T06:20:52;9.10;1.00
37678;DHT22;23517;50.390;8.616;2023-11-19T06:23:18;9.10;1.00
37678;DHT22;23517;50.390;8.616;2023-11-19T06:25:45;9.10;1.00
37678;DHT22;23517;50.390;8.616;2023-11-19T06:28:12;9.10;1.00
37678;DHT22;23517;50.390;8.616;2023-11-19T06:30:39;9.10;1.00
37678;DHT22;23517;50.390;8.616;2023-11-19T06:33:07;9.10;1.00
37678;DHT22;23517;50.390;8.616;2023-11-19T06:35:34;9.10;1.00
37678;DHT22;23517;50.390;8.616;2023-11-19T06:38:03;9.20;1.00
37678;DHT22;23517;50.390;8.616;2023-11-19T06:40:34;9.20;1.00
37678;DHT22;23517;50.390;8.616;2023-11-19T06:43:04;9.20;1.00
37678;DHT22;23517;50.390;8.616;2023-11-19T06:45:31;9.20;1.00
37678;DHT22;23517;50.390;8.616;2023-11-19T06:47:57;9.20;1.00
37678;DHT22;23517;50.390;8.616;2023-11-19T06:50:27;9.30;1.00
37678;DHT22;23517;50.390;8.616;2023-11-19T06:52:55;9.30;1.00
37678;DHT22;23517;50.390;8.616;2023-11-19T06:55:21;9.40;1.00
37678;DHT22;23517;50.390;8.616;2023-11-19T06:57:48;9.50;1.00
37678;DHT22;23517;50.390;8.616;2023-11-19T07:00:15;9.60;1.00
37678;DHT22;23517;50.390;8.616;2023-11-19T07:02:43;9.60;1.00
37678;DHT22;23517;50.390;8.616;2023-11-19T07:05:11;9.70;1.00
37678;DHT22;23517;50.390;8.616;2023-11-19T07:07:39;9.80;1.00
37678;DHT22;23517;50.390;8.616;2023-11-19T07:10:07;9.80;1.00
37678;DHT22;23517;50.390;8.616;2023-11-19T07:12:35;9.80;1.00
37678;DHT22;23517;50.390;8.616;2023-11-19T07:15:02;9.80;1.00
37678;DHT22;23517;50.390;8.616;2023-11-19T07:17:30;9.90;1.00
37678;DHT22;23517;50.390;8.616;2023-11-19T07:19:57;9.90;1.00
37678;DHT22;23517;50.390;8.616;2023-11-19T07:22:26;10.00;1.00
37678;DHT22;23517;50.390;8.616;2023-11-19T07:24:55;10.00;1.00
37678;DHT22;23517;50.390;8.616;2023-11-19T07:27:22;10.00;1.00
37678;DHT22;23517;50.390;8.616;2023-11-19T07:29:50;10.00;1.00
37678;DHT22;23517;50.390;8.616;2023-11-19T07:32:17;10.00;1.00
37678;DHT22;23517;50.390;8.616;2023-11-19T07:34:44;10.00;1.00
37678;DHT22;23517;50.390;8.616;2023-11-19T07:37:11;10.00;1.00
37678;DHT22;23517;50.390;8.616;2023-11-19T07:39:38;10.10;1.00
37678;DHT22;23517;50.390;8.616;2023-11-19T07:42:07;10.10;1.00
37678;DHT22;23517;50.390;8.616;2023-11-19T07:44:34;10.10;1.00
37678;DHT22;23517;50.390;8.616;2023-11-19T07:47:00;10.10;1.00
37678;DHT22;23517;50.390;8.616;2023-11-19T07:49:27;10.10;1.00
37678;DHT22;23517;50.390;8.616;2023-11-19T07:51:54;10.20;1.00
37678;DHT22;23517;50.390;8.616;2023-11-19T07:54:20;10.20;1.00
37678;DHT22;23517;50.390;8.616;2023-11-19T07:56:47;10.20;1.00
37678;DHT22;23517;50.390;8.616;2023-11-19T07:59:16;10.30;1.00
37678;DHT22;23517;50.390;8.616;2023-11-19T08:01:42;10.30;1.00
37678;DHT22;23517;50.390;8.616;2023-11-19T08:04:09;10.40;1.00
37678;DHT22;23517;50.390;8.616;2023-11-19T08:06:36;10.40;1.00
37678;DHT22;23517;50.390;8.616;2023-11-19T08:09:03;10.40;1.00
37678;DHT22;23517;50.390;8.616;2023-11-19T08:11:30;10.40;1.00
37678;DHT22;23517;50.390;8.616;2023-11-19T08:13:57;10.40;1.00
37678;DHT22;23517;50.390;8.616;2023-11-19T08:16:23;10.40;1.00
37678;DHT22;23517;50.390;8.616;2023-11-19T08:18:50;10.40;1.00
37678;DHT22;23517;50.390;8.616;2023-11-19T08:21:19;10.40;1.00
37678;DHT22;23517;50.390;8.616;2023-11-19T08:23:47;10.50;1.00
37678;DHT22;23517;50.390;8.616;2023-11-19T08:26:15;10.60;1.00
37678;DHT22;23517;50.390;8.616;2023-11-19T08:28:46;10.60;1.00
37678;DHT22;23517;50.390;8.616;2023-11-19T08:31:14;10.70;99.90
37678;DHT22;23517;50.390;8.616;2023-11-19T08:33:40;10.80;99.90
37678;DHT22;23517;50.390;8.616;2023-11-19T08:36:07;10.80;99.90
37678;DHT22;23517;50.390;8.616;2023-11-19T08:38:34;11.00;99.90
37678;DHT22;23517;50.390;8.616;2023-11-19T08:41:01;11.10;37.60
37678;DHT22;23517;50.390;8.616;2023-11-19T08:43:28;11.10;1.00
37678;DHT22;23517;50.390;8.616;2023-11-19T08:45:55;11.20;1.00
37678;DHT22;23517;50.390;8.616;2023-11-19T08:48:21;11.10;1.00
37678;DHT22;23517;50.390;8.616;2023-11-19T08:50:48;11.20;1.00
37678;DHT22;23517;50.390;8.616;2023-11-19T08:53:15;11.20;1.00
37678;DHT22;23517;50.390;8.616;2023-11-19T08:55:42;11.20;1.00
37678;DHT22;23517;50.390;8.616;2023-11-19T08:58:09;11.20;1.00
37678;DHT22;23517;50.390;8.616;2023-11-19T09:00:35;11.30;1.00
37678;DHT22;23517;50.390;8.616;2023-11-19T09:03:02;11.40;99.90
37678;DHT22;23517;50.390;8.616;2023-11-19T09:05:30;11.40;19.50
37678;DHT22;23517;50.390;8.616;2023-11-19T09:07:56;11.50;56.80
37678;DHT22;23517;50.390;8.616;2023-11-19T09:10:23;11.50;1.00
37678;DHT22;23517;50.390;8.616;2023-11-19T09:12:50;11.50;1.00
37678;DHT22;23517;50.390;8.616;2023-11-19T09:15:16;11.50;99.90
37678;DHT22;23517;50.390;8.616;2023-11-19T09:17:43;11.50;99.90
37678;DHT22;23517;50.390;8.616;2023-11-19T09:20:11;11.70;1.00
37678;DHT22;23517;50.390;8.616;2023-11-19T09:22:42;11.70;1.00
37678;DHT22;23517;50.390;8.616;2023-11-19T09:25:08;11.70;1.00
37678;DHT22;23517;50.390;8.616;2023-11-19T09:27:35;11.70;1.00
37678;DHT22;23517;50.390;8.616;2023-11-19T09:30:03;11.70;99.90
37678;DHT22;23517;50.390;8.616;2023-11-19T09:32:30;11.80;1.00
37678;DHT22;23517;50.390;8.616;2023-11-19T09:34:57;11.90;1.00
37678;DHT22;23517;50.390;8.616;2023-11-19T09:37:24;11.90;1.00
37678;DHT22;23517;50.390;8.616;2023-11-19T09:39:51;11.90;99.90
37678;DHT22;23517;50.390;8.616;2023-11-19T09:42:19;12.00;99.90
37678;DHT22;23517;50.390;8.616;2023-11-19T09:44:47;12.00;99.90
37678;DHT22;23517;50.390;8.616;2023-11-19T09:47:14;12.00;1.00
37678;DHT22;23517;50.390;8.616;2023-11-19T09:49:43;12.10;1.00
37678;DHT22;23517;50.390;8.616;2023-11-19T09:52:10;12.10;37.60
37678;DHT22;23517;50.390;8.616;2023-11-19T09:54:37;12.10;58.00
37678;DHT22;23517;50.390;8.616;2023-11-19T09:57:04;12.10;1.00
37678;DHT22;23517;50.390;8.616;2023-11-19T09:59:34;12.20;1.00
37678;DHT22;23517;50.390;8.616;2023-11-19T10:02:02;12.30;1.00
37678;DHT22;23517;50.390;8.616;2023-11-19T10:04:30;12.30;1.00
37678;DHT22;23517;50.390;8.616;2023-11-19T10:06:58;12.30;1.00
37678;DHT22;23517;50.390;8.616;2023-11-19T10:09:25;12.30;1.00
37678;DHT22;23517;50.390;8.616;2023-11-19T10:11:51;12.30;1.00
37678;DHT22;23517;50.390;8.616;2023-11-19T10:14:22;12.30;1.00
37678;DHT22;23517;50.390;8.616;2023-11-19T10:16:50;12.30;1.00
37678;DHT22;23517;50.390;8.616;2023-11-19T10:19:20;12.30;1.00
37678;DHT22;23517;50.390;8.616;2023-11-19T10:21:49;12.30;1.00
37678;DHT22;23517;50.390;8.616;2023-11-19T10:24:16;12.30;1.00
37678;DHT22;23517;50.390;8.616;2023-11-19T10:26:46;12.40;1.00
37678;DHT22;23517;50.390;8.616;2023-11-19T10:29:13;12.40;1.00
37678;DHT22;23517;50.390;8.616;2023-11-19T10:31:50;12.40;1.00
37678;DHT22;23517;50.390;8.616;2023-11-19T10:34:26;12.50;1.00
37678;DHT22;23517;50.390;8.616;2023-11-19T10:36:53;12.50;1.00
37678;DHT22;23517;50.390;8.616;2023-11-19T10:39:20;12.40;1.00
37678;DHT22;23517;50.390;8.616;2023-11-19T10:41:47;12.40;1.00
37678;DHT22;23517;50.390;8.616;2023-11-19T10:44:33;12.40;1.00
37678;DHT22;23517;50.390;8.616;2023-11-19T10:47:05;12.50;1.00
37678;DHT22;23517;50.390;8.616;2023-11-19T10:49:32;12.50;1.00
37678;DHT22;23517;50.390;8.616;2023-11-19T10:52:02;12.50;1.00
37678;DHT22;23517;50.390;8.616;2023-11-19T10:54:30;12.50;1.00
37678;DHT22;23517;50.390;8.616;2023-11-19T10:56:59;12.60;1.00
37678;DHT22;23517;50.390;8.616;2023-11-19T10:59:31;12.70;1.00
37678;DHT22;23517;50.390;8.616;2023-11-19T11:02:03;12.70;1.00
37678;DHT22;23517;50.390;8.616;2023-11-19T11:04:35;12.70;1.00
37678;DHT22;23517;50.390;8.616;2023-11-19T11:07:07;12.80;1.00
37678;DHT22;23517;50.390;8.616;2023-11-19T11:09:35;12.70;1.00
37678;DHT22;23517;50.390;8.616;2023-11-19T11:12:04;12.70;1.00
37678;DHT22;23517;50.390;8.616;2023-11-19T11:14:32;12.70;1.00
37678;DHT22;23517;50.390;8.616;2023-11-19T11:17:02;12.70;1.00
37678;DHT22;23517;50.390;8.616;2023-11-19T11:19:30;12.70;1.00
37678;DHT22;23517;50.390;8.616;2023-11-19T11:21:57;12.80;1.00
37678;DHT22;23517;50.390;8.616;2023-11-19T11:24:34;12.90;1.00
37678;DHT22;23517;50.390;8.616;2023-11-19T11:35:53;13.00;1.00
37678;DHT22;23517;50.390;8.616;2023-11-19T11:38:40;12.90;1.00
37678;DHT22;23517;50.390;8.616;2023-11-19T11:41:19;13.00;1.00
37678;DHT22;23517;50.390;8.616;2023-11-19T11:43:51;13.00;1.00
37678;DHT22;23517;50.390;8.616;2023-11-19T11:49:06;13.10;1.00
37678;DHT22;23517;50.390;8.616;2023-11-19T11:57:01;13.10;1.00
37678;DHT22;23517;50.390;8.616;2023-11-19T12:02:10;13.00;1.00
37678;DHT22;23517;50.390;8.616;2023-11-19T12:04:40;13.00;1.00
37678;DHT22;23517;50.390;8.616;2023-11-19T12:07:12;13.00;1.00
37678;DHT22;23517;50.390;8.616;2023-11-19T12:10:06;13.00;1.00
37678;DHT22;23517;50.390;8.616;2023-11-19T12:12:34;13.00;1.00
37678;DHT22;23517;50.390;8.616;2023-11-19T12:15:06;13.10;1.00
37678;DHT22;23517;50.390;8.616;2023-11-19T12:17:38;13.10;1.00
37678;DHT22;23517;50.390;8.616;2023-11-19T12:20:08;13.20;1.00
37678;DHT22;23517;50.390;8.616;2023-11-19T12:22:37;13.20;1.00
37678;DHT22;23517;50.390;8.616;2023-11-19T12:25:06;13.20;1.00
37678;DHT22;23517;50.390;8.616;2023-11-19T12:27:36;13.30;1.00
37678;DHT22;23517;50.390;8.616;2023-11-19T12:30:03;13.30;1.00
37678;DHT22;23517;50.390;8.616;2023-11-19T12:32:44;13.30;1.00
37678;DHT22;23517;50.390;8.616;2023-11-19T12:35:12;13.20;1.00
37678;DHT22;23517;50.390;8.616;2023-11-19T12:37:49;13.20;1.00
37678;DHT22;23517;50.390;8.616;2023-11-19T12:40:21;13.20;99.90
37678;DHT22;23517;50.390;8.616;2023-11-19T12:42:51;13.20;99.90
37678;DHT22;23517;50.390;8.616;2023-11-19T12:45:19;13.30;99.90
37678;DHT22;23517;50.390;8.616;2023-11-19T12:47:47;13.30;99.90
37678;DHT22;23517;50.390;8.616;2023-11-19T12:50:17;13.30;99.90
37678;DHT22;23517;50.390;8.616;2023-11-19T12:52:56;13.30;99.90
37678;DHT22;23517;50.390;8.616;2023-11-19T12:55:25;13.20;99.90
37678;DHT22;23517;50.390;8.616;2023-11-19T12:57:56;13.20;99.90
37678;DHT22;23517;50.390;8.616;2023-11-19T13:00:26;13.10;99.90
37678;DHT22;23517;50.390;8.616;2023-11-19T13:02:55;13.20;99.90
37678;DHT22;23517;50.390;8.616;2023-11-19T13:05:28;13.10;99.90
37678;DHT22;23517;50.390;8.616;2023-11-19T13:08:00;13.10;99.90
37678;DHT22;23517;50.390;8.616;2023-11-19T13:10:51;13.20;99.90
37678;DHT22;23517;50.390;8.616;2023-11-19T13:13:20;13.10;99.90
37678;DHT22;23517;50.390;8.616;2023-11-19T13:15:47;13.10;99.90
37678;DHT22;23517;50.390;8.616;2023-11-19T13:18:16;13.10;99.90
37678;DHT22;23517;50.390;8.616;2023-11-19T13:20:43;13.10;99.90
37678;DHT22;23517;50.390;8.616;2023-11-19T13:23:10;13.10;99.90
37678;DHT22;23517;50.390;8.616;2023-11-19T13:25:37;13.10;99.90
37678;DHT22;23517;50.390;8.616;2023-11-19T13:28:03;13.10;99.90
37678;DHT22;23517;50.390;8.616;2023-11-19T13:30:32;13.10;99.90
37678;DHT22;23517;50.390;8.616;2023-11-19T13:32:59;13.00;99.90
37678;DHT22;23517;50.390;8.616;2023-11-19T13:35:27;13.00;99.90
37678;DHT22;23517;50.390;8.616;2023-11-19T13:37:54;12.90;99.90
37678;DHT22;23517;50.390;8.616;2023-11-19T13:40:21;12.90;99.90
37678;DHT22;23517;50.390;8.616;2023-11-19T13:42:49;12.90;99.90
37678;DHT22;23517;50.390;8.616;2023-11-19T13:45:15;12.90;99.90
37678;DHT22;23517;50.390;8.616;2023-11-19T13:47:45;12.90;99.90
37678;DHT22;23517;50.390;8.616;2023-11-19T13:50:14;12.90;99.90
37678;DHT22;23517;50.390;8.616;2023-11-19T13:52:43;12.90;99.90
37678;DHT22;23517;50.390;8.616;2023-11-19T13:55:11;12.90;99.90
37678;DHT22;23517;50.390;8.616;2023-11-19T13:57:39;12.90;99.90
37678;DHT22;23517;50.390;8.616;2023-11-19T14:00:08;12.80;99.90
37678;DHT22;23517;50.390;8.616;2023-11-19T14:02:40;12.70;99.90
37678;DHT22;23517;50.390;8.616;2023-11-19T14:05:08;12.60;99.90
37678;DHT22;23517;50.390;8.616;2023-11-19T14:07:35;12.70;99.90
37678;DHT22;23517;50.390;8.616;2023-11-19T14:10:02;12.60;99.90
37678;DHT22;23517;50.390;8.616;2023-11-19T14:12:29;12.60;99.90
37678;DHT22;23517;50.390;8.616;2023-11-19T14:14:56;12.60;99.90
37678;DHT22;23517;50.390;8.616;2023-11-19T14:17:23;12.50;99.90
37678;DHT22;23517;50.390;8.616;2023-11-19T14:19:52;12.50;99.90
37678;DHT22;23517;50.390;8.616;2023-11-19T14:22:19;12.50;99.90
37678;DHT22;23517;50.390;8.616;2023-11-19T14:24:45;12.50;1.00
37678;DHT22;23517;50.390;8.616;2023-11-19T14:27:12;12.60;1.40
37678;DHT22;23517;50.390;8.616;2023-11-19T14:29:39;12.60;1.00
37678;DHT22;23517;50.390;8.616;2023-11-19T14:32:06;12.60;99.90
37678;DHT22;23517;50.390;8.616;2023-11-19T14:34:33;12.60;99.90
37678;DHT22;23517;50.390;8.616;2023-11-19T14:37:00;12.60;99.90
37678;DHT22;23517;50.390;8.616;2023-11-19T14:39:27;12.60;99.90
37678;DHT22;23517;50.390;8.616;2023-11-19T14:41:55;12.50;99.90
37678;DHT22;23517;50.390;8.616;2023-11-19T14:44:24;12.40;99.90
37678;DHT22;23517;50.390;8.616;2023-11-19T14:46:51;12.40;99.90
37678;DHT22;23517;50.390;8.616;2023-11-19T14:49:18;12.30;99.90
37678;DHT22;23517;50.390;8.616;2023-11-19T14:51:45;12.30;99.90
37678;DHT22;23517;50.390;8.616;2023-11-19T14:54:14;12.20;99.90
37678;DHT22;23517;50.390;8.616;2023-11-19T14:56:42;12.10;99.90
37678;DHT22;23517;50.390;8.616;2023-11-19T14:59:09;12.20;99.90
37678;DHT22;23517;50.390;8.616;2023-11-19T15:01:36;12.20;99.90
37678;DHT22;23517;50.390;8.616;2023-11-19T15:04:03;12.20;1.40
37678;DHT22;23517;50.390;8.616;2023-11-19T15:06:32;12.20;1.00
37678;DHT22;23517;50.390;8.616;2023-11-19T15:09:00;12.20;99.90
37678;DHT22;23517;50.390;8.616;2023-11-19T15:11:27;12.20;99.90
37678;DHT22;23517;50.390;8.616;2023-11-19T15:13:53;12.20;99.90
37678;DHT22;23517;50.390;8.616;2023-11-19T15:16:20;12.10;1.00
37678;DHT22;23517;50.390;8.616;2023-11-19T15:18:52;12.00;1.00
37678;DHT22;23517;50.390;8.616;2023-11-19T15:21:19;12.00;1.00
37678;DHT22;23517;50.390;8.616;2023-11-19T15:23:46;12.00;1.00
37678;DHT22;23517;50.390;8.616;2023-11-19T15:26:13;11.90;1.00
37678;DHT22;23517;50.390;8.616;2023-11-19T15:28:39;11.80;1.00
37678;DHT22;23517;50.390;8.616;2023-11-19T15:31:06;11.70;1.00
37678;DHT22;23517;50.390;8.616;2023-11-19T15:33:33;11.60;1.00
37678;DHT22;23517;50.390;8.616;2023-11-19T15:36:00;11.60;1.00
37678;DHT22;23517;50.390;8.616;2023-11-19T15:38:28;11.60;1.00
37678;DHT22;23517;50.390;8.616;2023-11-19T15:40:55;11.60;1.00
37678;DHT22;23517;50.390;8.616;2023-11-19T15:43:22;11.50;1.00
37678;DHT22;23517;50.390;8.616;2023-11-19T15:45:49;11.50;1.00
37678;DHT22;23517;50.390;8.616;2023-11-19T15:48:16;11.40;1.00
37678;DHT22;23517;50.390;8.616;2023-11-19T15:50:44;11.40;1.00
37678;DHT22;23517;50.390;8.616;2023-11-19T15:53:11;11.40;1.00
37678;DHT22;23517;50.390;8.616;2023-11-19T15:55:39;11.30;1.00
37678;DHT22;23517;50.390;8.616;2023-11-19T15:58:05;11.20;1.00
37678;DHT22;23517;50.390;8.616;2023-11-19T16:00:32;11.20;1.00
37678;DHT22;23517;50.390;8.616;2023-11-19T16:02:59;11.10;1.00
37678;DHT22;23517;50.390;8.616;2023-11-19T16:05:26;11.10;1.00
37678;DHT22;23517;50.390;8.616;2023-11-19T16:07:53;11.10;1.00
37678;DHT22;23517;50.390;8.616;2023-11-19T16:10:20;11.10;1.00
37678;DHT22;23517;50.390;8.616;2023-11-19T16:12:52;11.10;1.00
37678;DHT22;23517;50.390;8.616;2023-11-19T16:15:19;11.10;1.00